createdAt,value
2019-05-01T00:02:05.690Z,101793.92
2019-05-01T00:04:39.426Z,101797.44
2019-05-01T00:07:13.620Z,101797.44
2019-05-01T00:09:47.373Z,101801.41
2019-05-01T00:12:21.108Z,101799.34
2019-05-01T00:14:54.819Z,101797.56
2019-05-01T00:17:28.548Z,101797.56
2019-05-01T00:20:03.306Z,101796.15
2019-05-01T00:22:37.037Z,101796.15
2019-05-01T00:25:10.898Z,101787.19
2019-05-01T00:27:44.838Z,101787.19
2019-05-01T00:30:29.259Z,101787.45
2019-05-01T00:32:53.963Z,101785.36
2019-05-01T00:35:27.670Z,101785.36
2019-05-01T00:38:01.395Z,101784.48
2019-05-01T00:40:35.090Z,101784.52
2019-05-01T00:43:08.802Z,101781.97
2019-05-01T00:45:42.520Z,101773.09
2019-05-01T00:48:16.278Z,101763.88
2019-05-01T00:50:50.013Z,101763.88
2019-05-01T00:53:23.716Z,101766.13
2019-05-01T00:55:57.425Z,101767.50
2019-05-01T00:58:31.146Z,101758.98
2019-05-01T01:01:04.937Z,101757.86
2019-05-01T01:03:38.645Z,101757.86
2019-05-01T01:06:12.363Z,101750.64
2019-05-01T01:08:46.077Z,101750.30
2019-05-01T01:11:19.794Z,101747.66
2019-05-01T01:13:53.513Z,101750.65
2019-05-01T01:16:27.499Z,101750.65
2019-05-01T01:19:01.203Z,101741.19
2019-05-01T01:21:34.932Z,101742.84
2019-05-01T01:24:08.654Z,101742.84
2019-05-01T01:26:42.362Z,101747.08
2019-05-01T01:29:16.060Z,101747.08
2019-05-01T01:32:09.182Z,101734.30
2019-05-01T01:34:42.871Z,101734.30
2019-05-01T01:37:16.591Z,101734.36
2019-05-01T01:39:50.285Z,101736.02
2019-05-01T01:42:24.030Z,101725.08
2019-05-01T01:44:57.738Z,101726.29
2019-05-01T01:47:31.441Z,101726.58
2019-05-01T01:50:06.419Z,101726.58
2019-05-01T01:52:40.147Z,101726.95
2019-05-01T01:55:13.981Z,101726.95
2019-05-01T01:57:47.710Z,101719.14
2019-05-01T02:00:21.422Z,101724.80
2019-05-01T02:02:55.184Z,101719.45
2019-05-01T02:05:28.878Z,101720.33
2019-05-01T02:08:02.589Z,101718.58
2019-05-01T02:10:43.012Z,101717.33
2019-05-01T02:13:11.769Z,101717.33
2019-05-01T02:15:45.449Z,101716.17
2019-05-01T02:18:19.164Z,101709.20
2019-05-01T02:20:52.863Z,101709.20
2019-05-01T02:23:26.574Z,101717.44
2019-05-01T02:26:00.351Z,101711.28
2019-05-01T02:28:34.047Z,101702.14
2019-05-01T02:31:07.753Z,101707.16
2019-05-01T02:33:41.458Z,101703.03
2019-05-01T02:36:15.507Z,101691.41
2019-05-01T02:38:49.228Z,101689.67
2019-05-01T02:41:24.573Z,101692.48
2019-05-01T02:44:04.616Z,101692.27
2019-05-01T02:46:39.379Z,101692.27
2019-05-01T02:49:25.409Z,101692.34
2019-05-01T02:51:59.147Z,101690.05
2019-05-01T02:54:33.417Z,101690.05
2019-05-01T02:57:07.508Z,101688.20
2019-05-01T02:59:43.122Z,101688.20
2019-05-01T03:02:17.011Z,101679.79
2019-05-01T03:04:51.342Z,101684.81
2019-05-01T03:07:25.070Z,101684.81
2019-05-01T03:09:59.040Z,101679.73
2019-05-01T03:12:32.817Z,101674.59
2019-05-01T03:15:06.602Z,101666.64
2019-05-01T03:17:40.315Z,101666.64
2019-05-01T03:20:14.031Z,101664.48
2019-05-01T03:22:47.734Z,101668.17
2019-05-01T03:25:21.436Z,101668.17
2019-05-01T03:27:55.175Z,101669.58
2019-05-01T03:30:28.897Z,101667.02
2019-05-01T03:33:03.642Z,101663.73
2019-05-01T03:35:37.343Z,101663.73
2019-05-01T03:38:11.125Z,101662.03
2019-05-01T03:40:44.854Z,101662.03
2019-05-01T03:43:18.567Z,101660.56
2019-05-01T03:45:52.365Z,101654.09
2019-05-01T03:48:26.173Z,101654.09
2019-05-01T03:50:59.898Z,101660.95
2019-05-01T03:53:33.994Z,101660.95
2019-05-01T03:56:07.683Z,101652.62
2019-05-01T03:58:41.387Z,101654.67
2019-05-01T04:01:15.100Z,101652.86
2019-05-01T04:03:49.151Z,101653.45
2019-05-01T04:06:22.929Z,101653.45
2019-05-01T04:08:56.645Z,101654.02
2019-05-01T04:11:30.421Z,101658.64
2019-05-01T04:14:04.665Z,101657.81
2019-05-01T04:16:38.380Z,101657.81
2019-05-01T04:19:12.147Z,101647.04
2019-05-01T04:21:45.849Z,101651.17
2019-05-01T04:24:19.559Z,101651.17
2019-05-01T04:26:53.280Z,101656.55
2019-05-01T04:29:27.000Z,101655.48
2019-05-01T04:32:00.919Z,101655.48
2019-05-01T04:34:34.639Z,101653.87
2019-05-01T04:37:08.334Z,101653.87
2019-05-01T04:39:42.052Z,101657.95
2019-05-01T04:42:15.791Z,101658.01
2019-05-01T04:44:49.500Z,101658.41
2019-05-01T04:47:23.218Z,101656.36
2019-05-01T04:49:56.917Z,101656.36
2019-05-01T04:52:30.617Z,101667.38
2019-05-01T04:55:05.265Z,101665.00
2019-05-01T04:57:38.994Z,101665.00
2019-05-01T05:00:12.696Z,101668.71
2019-05-01T05:02:46.403Z,101671.17
2019-05-01T05:05:20.103Z,101661.84
2019-05-01T05:07:54.297Z,101663.91
2019-05-01T05:10:28.008Z,101662.64
2019-05-01T05:13:01.710Z,101662.64
2019-05-01T05:15:35.415Z,101663.34
2019-05-01T05:18:09.128Z,101663.34
2019-05-01T05:20:42.835Z,101669.80
2019-05-01T05:23:16.559Z,101669.80
2019-05-01T05:25:50.338Z,101674.56
2019-05-01T05:28:24.043Z,101670.92
2019-05-01T05:30:57.759Z,101667.52
2019-05-01T05:33:32.622Z,101674.37
2019-05-01T05:36:06.482Z,101678.55
2019-05-01T05:38:40.205Z,101677.86
2019-05-01T05:41:13.936Z,101675.97
2019-05-01T05:43:47.652Z,101675.97
2019-05-01T05:46:21.372Z,101683.95
2019-05-01T05:48:55.064Z,101683.95
2019-05-01T05:51:28.870Z,101665.46
2019-05-01T05:54:02.565Z,101685.55
2019-05-01T05:56:36.276Z,101685.08
2019-05-01T05:59:10.055Z,101679.22
2019-05-01T06:01:44.918Z,101674.50
2019-05-01T06:04:18.706Z,101674.50
2019-05-01T06:06:53.352Z,101687.47
2019-05-01T06:09:28.082Z,101685.48
2019-05-01T06:12:04.899Z,101680.73
2019-05-01T06:14:37.245Z,101685.20
2019-05-01T06:17:10.954Z,101676.11
2019-05-01T06:19:45.859Z,101679.14
2019-05-01T06:22:20.069Z,101677.13
2019-05-01T06:24:53.784Z,101677.91
2019-05-01T06:27:27.494Z,101677.91
2019-05-01T06:30:01.202Z,101676.30
2019-05-01T06:32:36.261Z,101676.30
2019-05-01T06:35:10.063Z,101675.23
2019-05-01T06:38:00.710Z,101675.23
2019-05-01T06:40:37.071Z,101678.09
2019-05-01T06:43:27.271Z,101678.09
2019-05-01T06:46:01.161Z,101670.54
2019-05-01T06:48:34.897Z,101670.54
2019-05-01T06:51:08.598Z,101675.16
2019-05-01T06:53:42.308Z,101675.38
2019-05-01T06:56:16.122Z,101674.84
2019-05-01T06:58:51.048Z,101673.19
2019-05-01T07:01:25.272Z,101677.55
2019-05-01T07:04:06.150Z,101677.55
2019-05-01T07:06:34.835Z,101677.75
2019-05-01T07:09:11.948Z,101680.79
2019-05-01T07:11:47.738Z,101674.25
2019-05-01T07:14:19.491Z,101671.44
2019-05-01T07:16:53.241Z,101671.73
2019-05-01T07:19:26.988Z,101672.36
2019-05-01T07:22:01.804Z,101669.15
2019-05-01T07:24:36.135Z,101670.17
2019-05-01T07:27:09.883Z,101670.17
2019-05-01T07:29:45.032Z,101669.30
2019-05-01T07:32:19.111Z,101659.78
2019-05-01T07:34:56.962Z,101659.78
2019-05-01T07:37:28.240Z,101668.91
2019-05-01T07:40:02.001Z,101666.63
2019-05-01T07:42:35.715Z,101667.20
2019-05-01T07:45:09.785Z,101655.77
2019-05-01T07:47:43.588Z,101650.86
2019-05-01T07:50:17.297Z,101655.91
2019-05-01T07:52:52.258Z,101655.91
2019-05-01T07:55:26.424Z,101659.03
2019-05-01T07:58:00.145Z,101687.97
2019-05-01T08:00:47.987Z,101644.85
2019-05-01T08:03:21.707Z,101658.84
2019-05-01T08:05:55.406Z,101658.84
2019-05-01T08:08:29.119Z,101666.56
2019-05-01T08:11:05.354Z,101658.56
2019-05-01T08:13:38.316Z,101658.56
2019-05-01T08:16:12.011Z,101661.91
2019-05-01T08:18:45.823Z,101655.21
2019-05-01T08:21:21.254Z,101655.21
2019-05-01T08:23:54.968Z,101653.69
2019-05-01T08:26:28.706Z,101642.62
2019-05-01T08:29:02.970Z,101638.52
2019-05-01T08:31:37.859Z,101646.80
2019-05-01T08:34:11.568Z,101654.78
2019-05-01T08:36:47.176Z,101654.78
2019-05-01T08:39:22.885Z,101653.59
2019-05-01T08:41:56.602Z,101651.93
2019-05-01T08:44:30.857Z,101651.93
2019-05-01T08:47:04.708Z,101645.01
2019-05-01T08:49:42.196Z,101651.45
2019-05-01T08:52:14.149Z,101651.88
2019-05-01T08:54:47.899Z,101627.88
2019-05-01T08:57:21.639Z,101647.37
2019-05-01T08:59:55.654Z,101643.73
2019-05-01T09:02:30.868Z,101646.23
2019-05-01T09:05:07.146Z,101645.80
2019-05-01T09:07:40.928Z,101635.69
2019-05-01T09:10:16.992Z,101643.80
2019-05-01T09:12:52.072Z,101628.02
2019-05-01T09:15:25.551Z,101634.31
2019-05-01T09:17:59.265Z,101627.10
2019-05-01T09:20:32.978Z,101627.10
2019-05-01T09:23:09.498Z,101622.81
2019-05-01T09:25:42.138Z,101622.81
2019-05-01T09:28:15.978Z,101621.25
2019-05-01T09:30:49.697Z,101626.17
2019-05-01T09:33:26.207Z,101618.70
2019-05-01T09:35:59.331Z,101618.70
2019-05-01T09:38:33.064Z,101615.66
2019-05-01T09:41:06.846Z,101624.47
2019-05-01T09:43:40.626Z,101624.47
2019-05-01T09:46:14.486Z,101620.83
2019-05-01T09:48:48.343Z,101616.94
2019-05-01T09:51:22.045Z,101619.56
2019-05-01T09:53:55.751Z,101612.25
2019-05-01T09:56:29.499Z,101612.25
2019-05-01T09:59:03.217Z,101605.88
2019-05-01T10:01:36.931Z,101602.45
2019-05-01T10:04:10.649Z,101602.45
2019-05-01T10:06:47.597Z,101599.24
2019-05-01T10:09:19.879Z,101598.20
2019-05-01T10:11:53.659Z,101592.83
2019-05-01T10:14:31.528Z,101592.83
2019-05-01T10:17:02.776Z,101588.12
2019-05-01T10:19:36.500Z,101579.77
2019-05-01T10:22:10.222Z,101581.84
2019-05-01T10:24:43.944Z,101587.40
2019-05-01T10:27:17.661Z,101581.61
2019-05-01T10:29:51.402Z,101573.35
2019-05-01T10:32:25.106Z,101571.95
2019-05-01T10:34:58.902Z,101571.95
2019-05-01T10:37:33.568Z,101568.02
2019-05-01T10:40:08.327Z,101561.83
2019-05-01T10:42:42.051Z,101563.25
2019-05-01T10:45:15.762Z,101563.25
2019-05-01T10:47:49.505Z,101567.57
2019-05-01T10:50:23.226Z,101567.57
2019-05-01T10:52:56.922Z,101549.42
2019-05-01T10:55:30.700Z,101550.17
2019-05-01T10:58:04.488Z,101546.43
2019-05-01T11:00:38.205Z,101549.80
2019-05-01T11:03:13.001Z,101549.80
2019-05-01T11:05:55.637Z,101536.87
2019-05-01T11:08:22.154Z,101536.87
2019-05-01T11:10:55.953Z,101532.27
2019-05-01T11:13:29.701Z,101532.27
2019-05-01T11:16:03.482Z,101533.66
2019-05-01T11:18:37.311Z,101522.57
2019-05-01T11:21:11.028Z,101529.02
2019-05-01T11:23:44.759Z,101529.02
2019-05-01T11:26:18.597Z,101529.83
2019-05-01T11:28:52.298Z,101529.83
2019-05-01T11:31:26.116Z,101525.52
2019-05-01T11:33:59.839Z,101530.59
2019-05-01T11:36:33.574Z,101526.16
2019-05-01T11:39:07.337Z,101524.49
2019-05-01T11:41:41.068Z,101507.87
2019-05-01T11:44:14.782Z,101523.07
2019-05-01T11:46:48.512Z,101519.00
2019-05-01T11:49:22.314Z,101519.00
2019-05-01T11:51:56.102Z,101508.37
2019-05-01T11:54:29.862Z,101506.33
2019-05-01T11:57:03.672Z,101502.67
2019-05-01T11:59:37.394Z,101502.67
2019-05-01T12:02:11.244Z,101508.90
2019-05-01T12:04:44.997Z,101504.20
2019-05-01T12:07:18.703Z,101499.31
2019-05-01T12:09:52.407Z,101499.31
2019-05-01T12:12:26.124Z,101509.19
2019-05-01T12:14:59.896Z,101486.39
2019-05-01T12:17:33.630Z,101486.39
2019-05-01T12:20:07.402Z,101480.27
2019-05-01T12:22:41.446Z,101478.48
2019-05-01T12:25:15.167Z,101470.53
2019-05-01T12:27:48.894Z,101470.14
2019-05-01T12:30:22.697Z,101470.14
2019-05-01T12:32:56.398Z,101453.20
2019-05-01T12:35:30.144Z,101453.20
2019-05-01T12:38:03.974Z,101459.50
2019-05-01T12:40:37.747Z,101453.23
2019-05-01T12:43:12.377Z,101453.23
2019-05-01T12:45:46.384Z,101448.31
2019-05-01T12:48:20.130Z,101451.55
2019-05-01T12:50:53.961Z,101451.55
2019-05-01T12:53:27.693Z,101452.85
2019-05-01T12:56:01.415Z,101452.26
2019-05-01T12:58:35.126Z,101445.12
2019-05-01T13:01:08.870Z,101441.77
2019-05-01T13:03:42.557Z,101441.12
2019-05-01T13:06:16.279Z,101441.12
2019-05-01T13:08:49.985Z,101424.91
2019-05-01T13:11:23.782Z,101424.91
2019-05-01T13:13:57.593Z,101429.34
2019-05-01T13:16:31.329Z,101423.31
2019-05-01T13:19:05.117Z,101423.31
2019-05-01T13:21:38.929Z,101426.20
2019-05-01T13:24:13.815Z,101426.20
2019-05-01T13:26:47.563Z,101422.53
2019-05-01T13:29:21.266Z,101416.01
2019-05-01T13:31:55.038Z,101416.95
2019-05-01T13:34:28.749Z,101412.06
2019-05-01T13:37:03.491Z,101412.06
2019-05-01T13:39:37.378Z,101410.46
2019-05-01T13:42:11.095Z,101402.54
2019-05-01T13:44:44.811Z,101393.50
2019-05-01T13:47:18.555Z,101393.50
2019-05-01T13:49:52.278Z,101395.55
2019-05-01T13:52:25.991Z,101395.55
2019-05-01T13:54:59.741Z,101381.25
2019-05-01T13:57:33.512Z,101382.54
2019-05-01T14:00:07.391Z,101382.54
2019-05-01T14:02:41.106Z,101369.97
2019-05-01T14:05:14.811Z,101369.97
2019-05-01T14:07:48.532Z,101373.59
2019-05-01T14:10:22.336Z,101367.55
2019-05-01T14:12:56.091Z,101369.54
2019-05-01T14:15:29.937Z,101365.08
2019-05-01T14:18:03.656Z,101374.52
2019-05-01T14:20:38.209Z,101365.13
2019-05-01T14:23:11.939Z,101365.13
2019-05-01T14:25:45.732Z,101367.32
2019-05-01T14:28:19.473Z,101363.77
2019-05-01T14:30:53.222Z,101363.77
2019-05-01T14:33:26.986Z,101357.12
2019-05-01T14:36:00.754Z,101359.27
2019-05-01T14:38:34.483Z,101356.09
2019-05-01T14:41:08.206Z,101358.37
2019-05-01T14:43:41.992Z,101358.37
2019-05-01T14:46:15.694Z,101359.02
2019-05-01T14:48:49.442Z,101358.02
2019-05-01T14:51:23.194Z,101358.02
2019-05-01T14:53:56.897Z,101349.16
2019-05-01T14:56:30.648Z,101348.69
2019-05-01T14:59:04.499Z,101349.86
2019-05-01T15:01:38.204Z,101346.72
2019-05-01T15:04:13.121Z,101346.72
2019-05-01T15:06:46.823Z,101343.54
2019-05-01T15:09:20.752Z,101345.77
2019-05-01T15:11:54.470Z,101345.77
2019-05-01T15:14:28.199Z,101339.88
2019-05-01T15:17:01.925Z,101339.16
2019-05-01T15:19:35.629Z,101339.16
2019-05-01T15:22:09.318Z,101347.84
2019-05-01T15:24:43.130Z,101342.55
2019-05-01T15:27:17.155Z,101330.30
2019-05-01T15:29:50.865Z,101330.30
2019-05-01T15:32:24.601Z,101331.05
2019-05-01T15:34:58.333Z,101321.22
2019-05-01T15:37:32.071Z,101330.17
2019-05-01T15:40:06.153Z,101330.17
2019-05-01T15:42:39.873Z,101320.29
2019-05-01T15:45:13.574Z,101323.08
2019-05-01T15:47:47.325Z,101318.75
2019-05-01T15:50:21.051Z,101318.75
2019-05-01T15:52:54.751Z,101316.99
2019-05-01T15:55:28.485Z,101310.61
2019-05-01T15:58:02.291Z,101310.61
2019-05-01T16:00:36.078Z,101317.28
2019-05-01T16:03:09.799Z,101317.28
2019-05-01T16:05:43.512Z,101327.61
2019-05-01T16:08:17.269Z,101317.11
2019-05-01T16:10:50.979Z,101317.11
2019-05-01T16:13:24.782Z,101311.74
2019-05-01T16:15:58.520Z,101313.42
2019-05-01T16:18:32.240Z,101310.30
2019-05-01T16:21:05.968Z,101307.47
2019-05-01T16:23:39.653Z,101309.55
2019-05-01T16:26:13.352Z,101295.92
2019-05-01T16:28:47.086Z,101294.23
2019-05-01T16:31:20.808Z,101294.23
2019-05-01T16:33:54.526Z,101281.36
2019-05-01T16:36:28.266Z,101281.36
2019-05-01T16:39:02.027Z,101284.98
2019-05-01T16:41:35.738Z,101281.19
2019-05-01T16:44:09.644Z,101281.09
2019-05-01T16:46:43.656Z,101277.33
2019-05-01T16:49:17.372Z,101275.05
2019-05-01T16:51:51.104Z,101261.77
2019-05-01T16:54:24.812Z,101261.77
2019-05-01T16:56:58.593Z,101261.38
2019-05-01T16:59:32.310Z,101258.71
2019-05-01T17:02:06.020Z,101258.71
2019-05-01T17:04:39.756Z,101252.05
2019-05-01T17:07:13.543Z,101256.68
2019-05-01T17:09:47.338Z,101250.50
2019-05-01T17:12:21.184Z,101249.28
2019-05-01T17:14:55.000Z,101249.28
2019-05-01T17:17:28.724Z,101257.44
2019-05-01T17:20:03.107Z,101257.71
2019-05-01T17:22:36.826Z,101253.56
2019-05-01T17:25:10.543Z,101248.13
2019-05-01T17:27:44.281Z,101252.05
2019-05-01T17:30:21.284Z,101242.45
2019-05-01T17:32:55.105Z,101247.98
2019-05-01T17:35:28.916Z,101247.98
2019-05-01T17:38:02.701Z,101246.00
2019-05-01T17:40:36.438Z,101252.82
2019-05-01T17:43:13.506Z,101248.35
2019-05-01T17:45:45.603Z,101248.25
2019-05-01T17:48:19.633Z,101248.25
2019-05-01T17:50:55.156Z,101242.16
2019-05-01T17:53:28.859Z,101240.56
2019-05-01T17:56:02.590Z,101240.56
2019-05-01T17:58:36.301Z,101241.58
2019-05-01T18:01:10.064Z,101243.11
2019-05-01T18:03:43.788Z,101237.07
2019-05-01T18:06:17.513Z,101238.65
2019-05-01T18:09:02.509Z,101239.80
2019-05-01T18:11:27.167Z,101232.17
2019-05-01T18:14:00.907Z,101232.17
2019-05-01T18:16:34.639Z,101233.19
2019-05-01T18:19:09.900Z,101233.19
2019-05-01T18:21:46.785Z,101233.24
2019-05-01T18:24:23.179Z,101238.29
2019-05-01T18:26:54.913Z,101238.29
2019-05-01T18:29:28.622Z,101249.72
2019-05-01T18:32:03.061Z,101249.72
2019-05-01T18:34:38.342Z,101249.85
2019-05-01T18:37:13.826Z,101245.81
2019-05-01T18:39:47.544Z,101248.72
2019-05-01T18:42:21.240Z,101244.16
2019-05-01T18:44:55.016Z,101246.67
2019-05-01T18:47:28.832Z,101244.56
2019-05-01T18:50:04.211Z,101244.89
2019-05-01T18:52:37.930Z,101240.00
2019-05-01T18:55:11.730Z,101240.00
2019-05-01T18:57:45.467Z,101242.41
2019-05-01T19:00:19.172Z,101240.05
2019-05-01T19:02:52.898Z,101236.81
2019-05-01T19:05:26.633Z,101236.33
2019-05-01T19:08:00.463Z,101236.33
2019-05-01T19:10:34.164Z,101248.13
2019-05-01T19:13:07.886Z,101248.13
2019-05-01T19:15:41.627Z,101236.36
2019-05-01T19:18:15.386Z,101235.88
2019-05-01T19:20:59.403Z,101240.59
2019-05-01T19:23:27.948Z,101242.97
2019-05-01T19:26:04.948Z,101239.33
2019-05-01T19:28:36.311Z,101245.44
2019-05-01T19:31:10.040Z,101244.64
2019-05-01T19:33:43.898Z,101244.64
2019-05-01T19:36:17.639Z,101241.52
2019-05-01T19:38:51.363Z,101240.50
2019-05-01T19:41:25.099Z,101235.88
2019-05-01T19:43:58.813Z,101229.88
2019-05-01T19:46:32.532Z,101226.45
2019-05-01T19:49:06.245Z,101228.30
2019-05-01T19:51:40.023Z,101231.39
2019-05-01T19:54:13.776Z,101222.63
2019-05-01T19:56:47.560Z,101222.63
2019-05-01T19:59:21.419Z,101224.01
2019-05-01T20:01:55.250Z,101223.31
2019-05-01T20:04:28.999Z,101220.48
2019-05-01T20:07:02.831Z,101219.06
2019-05-01T20:09:36.639Z,101219.06
2019-05-01T20:12:10.344Z,101216.37
2019-05-01T20:14:44.057Z,101215.01
2019-05-01T20:17:17.944Z,101218.04
2019-05-01T20:19:51.680Z,101218.04
2019-05-01T20:22:25.405Z,101210.61
2019-05-01T20:24:59.124Z,101210.33
2019-05-01T20:27:32.844Z,101216.23
2019-05-01T20:30:07.226Z,101208.86
2019-05-01T20:32:40.930Z,101208.86
2019-05-01T20:35:14.722Z,101204.84
2019-05-01T20:37:48.418Z,101203.90
2019-05-01T20:40:22.226Z,101205.19
2019-05-01T20:42:55.936Z,101201.53
2019-05-01T20:45:29.666Z,101199.77
2019-05-01T20:48:03.506Z,101201.78
2019-05-01T20:50:37.235Z,101201.78
2019-05-01T20:53:10.946Z,101195.16
2019-05-01T20:55:44.784Z,101196.35
2019-05-01T20:58:18.518Z,101194.00
2019-05-01T21:00:53.604Z,101194.72
2019-05-01T21:03:27.710Z,101188.81
2019-05-01T21:06:02.882Z,101194.52
2019-05-01T21:08:39.261Z,101193.52
2019-05-01T21:11:13.063Z,101197.80
2019-05-01T21:13:46.858Z,101197.80
2019-05-01T21:16:20.593Z,101200.58
2019-05-01T21:18:54.315Z,101196.44
2019-05-01T21:21:28.034Z,101194.06
2019-05-01T21:24:03.561Z,101194.06
2019-05-01T21:26:37.352Z,101189.82
2019-05-01T21:29:11.070Z,101192.78
2019-05-01T21:31:44.862Z,101184.95
2019-05-01T21:34:18.599Z,101183.60
2019-05-01T21:36:53.923Z,101183.60
2019-05-01T21:39:27.907Z,101190.10
2019-05-01T21:42:06.605Z,101183.47
2019-05-01T21:44:37.037Z,101183.47
2019-05-01T21:47:10.735Z,101175.85
2019-05-01T21:49:44.571Z,101175.85
2019-05-01T21:52:23.055Z,101169.39
2019-05-01T21:54:55.201Z,101169.39
2019-05-01T21:57:30.581Z,101169.27
2019-05-01T22:00:06.205Z,101174.14
2019-05-01T22:02:41.502Z,101161.30
2019-05-01T22:05:15.401Z,101161.30
2019-05-01T22:07:49.117Z,101157.23
2019-05-01T22:10:26.577Z,101157.23
2019-05-01T22:12:58.266Z,101154.41
2019-05-01T22:15:32.054Z,101157.09
2019-05-01T22:18:05.768Z,101157.09
2019-05-01T22:20:39.545Z,101150.77
2019-05-01T22:23:17.014Z,101146.05
2019-05-01T22:25:49.450Z,101146.63
2019-05-01T22:28:23.169Z,101146.25
2019-05-01T22:30:56.882Z,101145.30
2019-05-01T22:33:30.621Z,101145.30
2019-05-01T22:36:04.331Z,101119.45
2019-05-01T22:38:38.127Z,101142.73
2019-05-01T22:41:11.829Z,101138.72
2019-05-01T22:43:45.543Z,101132.02
2019-05-01T22:46:19.253Z,101127.00
2019-05-01T22:48:52.974Z,101140.01
2019-05-01T22:51:26.686Z,101136.83
2019-05-01T22:54:00.408Z,101127.23
2019-05-01T22:56:34.145Z,101127.23
2019-05-01T22:59:07.849Z,101123.92
2019-05-01T23:01:41.554Z,101121.17
2019-05-01T23:04:17.058Z,101121.17
2019-05-01T23:06:50.675Z,101120.07
2019-05-01T23:09:28.532Z,101116.19
2019-05-01T23:11:59.922Z,101115.04
2019-05-01T23:14:33.669Z,101115.04
2019-05-01T23:17:07.389Z,101103.64
2019-05-01T23:19:41.111Z,101117.55
2019-05-01T23:22:14.824Z,101117.55
2019-05-01T23:24:48.537Z,101116.09
2019-05-01T23:27:24.387Z,101105.64
2019-05-01T23:29:57.648Z,101105.64
2019-05-01T23:32:31.374Z,101103.00
2019-05-01T23:35:05.855Z,101096.23
2019-05-01T23:37:39.558Z,101093.79
2019-05-01T23:40:15.641Z,101092.67
2019-05-01T23:42:52.850Z,101092.14
2019-05-01T23:45:24.095Z,101092.14
2019-05-01T23:47:57.841Z,101080.58
2019-05-01T23:50:31.551Z,101080.47
2019-05-01T23:53:09.045Z,101072.88
2019-05-01T23:55:40.662Z,101067.74
2019-05-01T23:58:14.369Z,101067.37
